sensor_id;sensor_type;location;lat;lon;timestamp;temperature;humidity
20977;DHT22;10647;51.016;3.720;2023-06-04T00:01:46;17.70;83.90
20977;DHT22;10647;51.016;3.720;2023-06-04T00:04:13;17.60;84.10
20977;DHT22;10647;51.016;3.720;2023-06-04T00:06:43;17.60;84.40
20977;DHT22;10647;51.016;3.720;2023-06-04T00:09:10;17.60;84.90
20977;DHT22;10647;51.016;3.720;2023-06-04T00:11:39;17.50;85.40
20977;DHT22;10647;51.016;3.720;2023-06-04T00:14:06;17.40;85.80
20977;DHT22;10647;51.016;3.720;2023-06-04T00:16:34;17.40;86.00
20977;DHT22;10647;51.016;3.720;2023-06-04T00:19:02;17.30;86.40
20977;DHT22;10647;51.016;3.720;2023-06-04T00:21:30;17.40;86.60
20977;DHT22;10647;51.016;3.720;2023-06-04T00:23:57;17.30;87.00
20977;DHT22;10647;51.016;3.720;2023-06-04T00:26:25;17.20;87.20
20977;DHT22;10647;51.016;3.720;2023-06-04T00:28:54;17.20;87.50
20977;DHT22;10647;51.016;3.720;2023-06-04T00:31:22;17.20;87.80
20977;DHT22;10647;51.016;3.720;2023-06-04T00:33:50;17.20;87.80
20977;DHT22;10647;51.016;3.720;2023-06-04T00:36:17;17.10;87.90
20977;DHT22;10647;51.016;3.720;2023-06-04T00:38:45;17.10;88.00
20977;DHT22;10647;51.016;3.720;2023-06-04T00:41:13;17.10;88.20
20977;DHT22;10647;51.016;3.720;2023-06-04T00:43:40;17.10;88.50
20977;DHT22;10647;51.016;3.720;2023-06-04T00:46:10;17.00;88.70
20977;DHT22;10647;51.016;3.720;2023-06-04T00:48:39;17.00;89.10
20977;DHT22;10647;51.016;3.720;2023-06-04T00:51:08;16.90;89.50
20977;DHT22;10647;51.016;3.720;2023-06-04T00:53:36;16.90;89.80
20977;DHT22;10647;51.016;3.720;2023-06-04T00:56:04;16.90;90.00
20977;DHT22;10647;51.016;3.720;2023-06-04T00:58:37;16.80;90.10
20977;DHT22;10647;51.016;3.720;2023-06-04T01:01:05;16.80;90.10
20977;DHT22;10647;51.016;3.720;2023-06-04T01:03:35;16.80;90.20
20977;DHT22;10647;51.016;3.720;2023-06-04T01:06:11;16.80;90.40
20977;DHT22;10647;51.016;3.720;2023-06-04T01:08:43;16.70;90.40
20977;DHT22;10647;51.016;3.720;2023-06-04T01:11:11;16.70;90.60
20977;DHT22;10647;51.016;3.720;2023-06-04T01:13:38;16.60;90.70
20977;DHT22;10647;51.016;3.720;2023-06-04T01:16:06;16.60;90.90
20977;DHT22;10647;51.016;3.720;2023-06-04T01:18:36;16.50;90.90
20977;DHT22;10647;51.016;3.720;2023-06-04T01:21:08;16.50;91.00
20977;DHT22;10647;51.016;3.720;2023-06-04T01:23:51;16.50;91.20
20977;DHT22;10647;51.016;3.720;2023-06-04T01:26:28;16.40;91.30
20977;DHT22;10647;51.016;3.720;2023-06-04T01:28:58;16.40;91.40
20977;DHT22;10647;51.016;3.720;2023-06-04T01:31:26;16.30;91.50
20977;DHT22;10647;51.016;3.720;2023-06-04T01:33:58;16.30;91.60
20977;DHT22;10647;51.016;3.720;2023-06-04T01:36:25;16.30;91.70
20977;DHT22;10647;51.016;3.720;2023-06-04T01:38:53;16.30;92.10
20977;DHT22;10647;51.016;3.720;2023-06-04T01:41:21;16.30;91.90
20977;DHT22;10647;51.016;3.720;2023-06-04T01:43:54;16.30;92.00
20977;DHT22;10647;51.016;3.720;2023-06-04T01:46:22;16.20;92.10
20977;DHT22;10647;51.016;3.720;2023-06-04T01:48:49;16.20;92.30
20977;DHT22;10647;51.016;3.720;2023-06-04T01:51:19;16.10;92.30
20977;DHT22;10647;51.016;3.720;2023-06-04T01:53:52;16.10;92.40
20977;DHT22;10647;51.016;3.720;2023-06-04T01:56:25;16.10;92.40
20977;DHT22;10647;51.016;3.720;2023-06-04T01:58:56;16.10;92.50
20977;DHT22;10647;51.016;3.720;2023-06-04T02:01:24;16.00;92.90
20977;DHT22;10647;51.016;3.720;2023-06-04T02:03:51;16.00;92.70
20977;DHT22;10647;51.016;3.720;2023-06-04T02:06:19;16.00;92.80
20977;DHT22;10647;51.016;3.720;2023-06-04T02:08:46;16.00;92.90
20977;DHT22;10647;51.016;3.720;2023-06-04T02:11:14;16.00;92.90
20977;DHT22;10647;51.016;3.720;2023-06-04T02:13:41;15.90;93.00
20977;DHT22;10647;51.016;3.720;2023-06-04T02:16:09;15.90;93.00
20977;DHT22;10647;51.016;3.720;2023-06-04T02:18:36;15.80;93.10
20977;DHT22;10647;51.016;3.720;2023-06-04T02:21:04;15.80;93.20
20977;DHT22;10647;51.016;3.720;2023-06-04T02:23:31;15.80;93.20
20977;DHT22;10647;51.016;3.720;2023-06-04T02:25:59;15.70;93.30
20977;DHT22;10647;51.016;3.720;2023-06-04T02:28:26;15.80;93.30
20977;DHT22;10647;51.016;3.720;2023-06-04T02:30:54;15.70;93.50
20977;DHT22;10647;51.016;3.720;2023-06-04T02:33:21;15.70;93.50
20977;DHT22;10647;51.016;3.720;2023-06-04T02:35:49;15.70;93.60
20977;DHT22;10647;51.016;3.720;2023-06-04T02:38:16;15.70;93.70
20977;DHT22;10647;51.016;3.720;2023-06-04T02:40:44;15.60;93.50
20977;DHT22;10647;51.016;3.720;2023-06-04T02:43:11;15.60;93.90
20977;DHT22;10647;51.016;3.720;2023-06-04T02:45:39;15.60;94.00
20977;DHT22;10647;51.016;3.720;2023-06-04T02:48:06;15.50;94.00
20977;DHT22;10647;51.016;3.720;2023-06-04T02:50:34;15.50;94.20
20977;DHT22;10647;51.016;3.720;2023-06-04T02:53:01;15.40;94.30
20977;DHT22;10647;51.016;3.720;2023-06-04T02:55:29;15.40;94.40
20977;DHT22;10647;51.016;3.720;2023-06-04T02:57:56;15.40;94.50
20977;DHT22;10647;51.016;3.720;2023-06-04T03:00:24;15.40;94.50
20977;DHT22;10647;51.016;3.720;2023-06-04T03:02:52;15.40;94.60
20977;DHT22;10647;51.016;3.720;2023-06-04T03:05:22;15.40;94.60
20977;DHT22;10647;51.016;3.720;2023-06-04T03:07:50;15.40;94.70
20977;DHT22;10647;51.016;3.720;2023-06-04T03:10:18;15.40;94.80
20977;DHT22;10647;51.016;3.720;2023-06-04T03:12:45;15.40;94.90
20977;DHT22;10647;51.016;3.720;2023-06-04T03:15:13;15.30;95.00
20977;DHT22;10647;51.016;3.720;2023-06-04T03:17:41;15.30;95.10
20977;DHT22;10647;51.016;3.720;2023-06-04T03:20:09;15.20;95.30
20977;DHT22;10647;51.016;3.720;2023-06-04T03:22:37;15.20;95.50
20977;DHT22;10647;51.016;3.720;2023-06-04T03:25:05;15.20;95.50
20977;DHT22;10647;51.016;3.720;2023-06-04T03:27:33;15.20;95.60
20977;DHT22;10647;51.016;3.720;2023-06-04T03:30:03;15.20;95.70
20977;DHT22;10647;51.016;3.720;2023-06-04T03:32:31;15.10;95.70
20977;DHT22;10647;51.016;3.720;2023-06-04T03:34:59;15.10;95.80
20977;DHT22;10647;51.016;3.720;2023-06-04T03:37:28;15.10;95.90
20977;DHT22;10647;51.016;3.720;2023-06-04T03:39:57;15.10;95.90
20977;DHT22;10647;51.016;3.720;2023-06-04T03:42:24;15.10;96.10
20977;DHT22;10647;51.016;3.720;2023-06-04T03:44:52;15.00;96.10
20977;DHT22;10647;51.016;3.720;2023-06-04T03:47:20;15.00;96.40
20977;DHT22;10647;51.016;3.720;2023-06-04T03:49:47;15.00;96.50
20977;DHT22;10647;51.016;3.720;2023-06-04T03:52:15;15.00;96.50
20977;DHT22;10647;51.016;3.720;2023-06-04T03:54:43;15.00;96.50
20977;DHT22;10647;51.016;3.720;2023-06-04T03:57:11;15.00;96.60
20977;DHT22;10647;51.016;3.720;2023-06-04T03:59:39;14.90;96.70
20977;DHT22;10647;51.016;3.720;2023-06-04T04:02:07;15.00;96.70
20977;DHT22;10647;51.016;3.720;2023-06-04T04:04:34;15.00;96.70
20977;DHT22;10647;51.016;3.720;2023-06-04T04:07:02;15.00;96.80
20977;DHT22;10647;51.016;3.720;2023-06-04T04:09:29;15.00;96.80
20977;DHT22;10647;51.016;3.720;2023-06-04T04:11:57;15.10;96.80
20977;DHT22;10647;51.016;3.720;2023-06-04T04:14:24;15.10;96.90
20977;DHT22;10647;51.016;3.720;2023-06-04T04:16:52;15.10;96.90
20977;DHT22;10647;51.016;3.720;2023-06-04T04:19:19;15.10;97.00
20977;DHT22;10647;51.016;3.720;2023-06-04T04:21:47;15.10;97.00
20977;DHT22;10647;51.016;3.720;2023-06-04T04:24:28;15.10;97.00
20977;DHT22;10647;51.016;3.720;2023-06-04T04:26:55;15.20;97.00
20977;DHT22;10647;51.016;3.720;2023-06-04T04:29:25;15.20;97.00
20977;DHT22;10647;51.016;3.720;2023-06-04T04:31:54;15.20;97.00
20977;DHT22;10647;51.016;3.720;2023-06-04T04:34:25;15.30;96.90
20977;DHT22;10647;51.016;3.720;2023-06-04T04:36:52;15.30;96.90
20977;DHT22;10647;51.016;3.720;2023-06-04T04:39:22;15.40;97.00
20977;DHT22;10647;51.016;3.720;2023-06-04T04:41:53;15.40;97.00
20977;DHT22;10647;51.016;3.720;2023-06-04T04:44:21;15.40;97.00
20977;DHT22;10647;51.016;3.720;2023-06-04T04:46:55;15.50;97.00
20977;DHT22;10647;51.016;3.720;2023-06-04T04:49:22;15.50;96.90
20977;DHT22;10647;51.016;3.720;2023-06-04T04:51:50;15.50;96.90
20977;DHT22;10647;51.016;3.720;2023-06-04T04:54:17;15.50;96.90
20977;DHT22;10647;51.016;3.720;2023-06-04T04:56:45;15.60;96.80
20977;DHT22;10647;51.016;3.720;2023-06-04T04:59:12;15.70;96.80
20977;DHT22;10647;51.016;3.720;2023-06-04T05:01:40;15.70;96.80
20977;DHT22;10647;51.016;3.720;2023-06-04T05:04:07;15.80;96.70
20977;DHT22;10647;51.016;3.720;2023-06-04T05:06:35;15.90;96.60
20977;DHT22;10647;51.016;3.720;2023-06-04T05:09:02;15.90;96.40
20977;DHT22;10647;51.016;3.720;2023-06-04T05:11:30;16.00;96.40
20977;DHT22;10647;51.016;3.720;2023-06-04T05:13:57;16.00;96.30
20977;DHT22;10647;51.016;3.720;2023-06-04T05:16:25;16.10;96.30
20977;DHT22;10647;51.016;3.720;2023-06-04T05:18:54;16.10;96.10
20977;DHT22;10647;51.016;3.720;2023-06-04T05:21:23;16.10;96.20
20977;DHT22;10647;51.016;3.720;2023-06-04T05:23:57;16.20;96.20
20977;DHT22;10647;51.016;3.720;2023-06-04T05:26:24;16.20;96.10
20977;DHT22;10647;51.016;3.720;2023-06-04T05:28:54;16.30;96.10
20977;DHT22;10647;51.016;3.720;2023-06-04T05:31:22;16.30;96.00
20977;DHT22;10647;51.016;3.720;2023-06-04T05:33:51;16.40;95.90
20977;DHT22;10647;51.016;3.720;2023-06-04T05:36:19;16.40;95.80
20977;DHT22;10647;51.016;3.720;2023-06-04T05:38:47;16.50;95.80
20977;DHT22;10647;51.016;3.720;2023-06-04T05:41:14;16.50;95.80
20977;DHT22;10647;51.016;3.720;2023-06-04T05:43:42;16.60;95.50
20977;DHT22;10647;51.016;3.720;2023-06-04T05:46:10;16.60;95.50
20977;DHT22;10647;51.016;3.720;2023-06-04T05:48:40;16.70;95.40
20977;DHT22;10647;51.016;3.720;2023-06-04T05:51:07;16.80;95.30
20977;DHT22;10647;51.016;3.720;2023-06-04T05:53:35;16.80;95.10
20977;DHT22;10647;51.016;3.720;2023-06-04T05:56:02;16.90;95.00
20977;DHT22;10647;51.016;3.720;2023-06-04T05:58:33;17.00;95.00
20977;DHT22;10647;51.016;3.720;2023-06-04T06:01:02;17.10;94.60
20977;DHT22;10647;51.016;3.720;2023-06-04T06:03:29;17.20;94.50
20977;DHT22;10647;51.016;3.720;2023-06-04T06:05:57;17.20;94.30
20977;DHT22;10647;51.016;3.720;2023-06-04T06:08:27;17.20;94.10
20977;DHT22;10647;51.016;3.720;2023-06-04T06:10:54;17.30;94.10
20977;DHT22;10647;51.016;3.720;2023-06-04T06:13:23;17.40;94.00
20977;DHT22;10647;51.016;3.720;2023-06-04T06:15:55;17.50;93.70
20977;DHT22;10647;51.016;3.720;2023-06-04T06:18:26;17.50;93.50
20977;DHT22;10647;51.016;3.720;2023-06-04T06:20:54;17.60;93.40
20977;DHT22;10647;51.016;3.720;2023-06-04T06:23:21;17.70;93.30
20977;DHT22;10647;51.016;3.720;2023-06-04T06:25:50;17.80;93.20
20977;DHT22;10647;51.016;3.720;2023-06-04T06:28:19;17.80;93.10
20977;DHT22;10647;51.016;3.720;2023-06-04T06:30:46;17.90;93.00
20977;DHT22;10647;51.016;3.720;2023-06-04T06:33:16;17.90;92.80
20977;DHT22;10647;51.016;3.720;2023-06-04T06:35:45;18.00;92.60
20977;DHT22;10647;51.016;3.720;2023-06-04T06:38:13;18.10;92.50
20977;DHT22;10647;51.016;3.720;2023-06-04T06:40:41;18.20;92.50
20977;DHT22;10647;51.016;3.720;2023-06-04T06:43:08;18.30;92.00
20977;DHT22;10647;51.016;3.720;2023-06-04T06:45:37;18.30;91.70
20977;DHT22;10647;51.016;3.720;2023-06-04T06:48:04;18.30;91.40
20977;DHT22;10647;51.016;3.720;2023-06-04T06:50:32;18.40;91.70
20977;DHT22;10647;51.016;3.720;2023-06-04T06:53:02;18.50;91.80
20977;DHT22;10647;51.016;3.720;2023-06-04T06:55:30;18.50;91.40
20977;DHT22;10647;51.016;3.720;2023-06-04T06:57:57;18.60;90.90
20977;DHT22;10647;51.016;3.720;2023-06-04T07:00:26;18.70;90.70
20977;DHT22;10647;51.016;3.720;2023-06-04T07:02:54;18.80;90.20
20977;DHT22;10647;51.016;3.720;2023-06-04T07:05:22;18.90;90.30
20977;DHT22;10647;51.016;3.720;2023-06-04T07:07:50;18.90;90.30
20977;DHT22;10647;51.016;3.720;2023-06-04T07:10:18;19.00;90.20
20977;DHT22;10647;51.016;3.720;2023-06-04T07:12:46;19.20;90.20
20977;DHT22;10647;51.016;3.720;2023-06-04T07:15:14;19.20;90.00
20977;DHT22;10647;51.016;3.720;2023-06-04T07:17:43;19.30;89.70
20977;DHT22;10647;51.016;3.720;2023-06-04T07:20:12;19.40;88.70
20977;DHT22;10647;51.016;3.720;2023-06-04T07:22:39;19.40;88.10
20977;DHT22;10647;51.016;3.720;2023-06-04T07:25:07;19.40;88.30
20977;DHT22;10647;51.016;3.720;2023-06-04T07:27:35;19.50;87.80
20977;DHT22;10647;51.016;3.720;2023-06-04T07:30:02;19.60;87.40
20977;DHT22;10647;51.016;3.720;2023-06-04T07:32:30;19.60;86.70
20977;DHT22;10647;51.016;3.720;2023-06-04T07:34:59;19.70;86.30
20977;DHT22;10647;51.016;3.720;2023-06-04T07:37:26;19.80;86.00
20977;DHT22;10647;51.016;3.720;2023-06-04T07:39:54;19.90;86.00
20977;DHT22;10647;51.016;3.720;2023-06-04T07:42:21;20.00;85.90
20977;DHT22;10647;51.016;3.720;2023-06-04T07:44:50;20.10;85.90
20977;DHT22;10647;51.016;3.720;2023-06-04T07:47:17;20.20;85.10
20977;DHT22;10647;51.016;3.720;2023-06-04T07:49:45;20.30;82.50
20977;DHT22;10647;51.016;3.720;2023-06-04T07:52:12;20.30;81.60
20977;DHT22;10647;51.016;3.720;2023-06-04T07:54:42;20.40;81.60
20977;DHT22;10647;51.016;3.720;2023-06-04T07:57:10;20.40;81.30
20977;DHT22;10647;51.016;3.720;2023-06-04T07:59:37;20.50;81.00
20977;DHT22;10647;51.016;3.720;2023-06-04T08:02:05;20.70;80.50
20977;DHT22;10647;51.016;3.720;2023-06-04T08:04:33;20.80;79.90
20977;DHT22;10647;51.016;3.720;2023-06-04T08:07:00;20.80;79.00
20977;DHT22;10647;51.016;3.720;2023-06-04T08:09:28;20.90;78.50
20977;DHT22;10647;51.016;3.720;2023-06-04T08:11:56;21.00;78.00
20977;DHT22;10647;51.016;3.720;2023-06-04T08:14:23;21.00;76.20
20977;DHT22;10647;51.016;3.720;2023-06-04T08:16:53;21.10;75.70
20977;DHT22;10647;51.016;3.720;2023-06-04T08:19:20;21.20;75.70
20977;DHT22;10647;51.016;3.720;2023-06-04T08:21:50;21.30;75.10
20977;DHT22;10647;51.016;3.720;2023-06-04T08:24:17;21.30;74.70
20977;DHT22;10647;51.016;3.720;2023-06-04T08:26:46;21.40;75.20
20977;DHT22;10647;51.016;3.720;2023-06-04T08:29:13;21.50;73.50
20977;DHT22;10647;51.016;3.720;2023-06-04T08:31:43;21.60;72.90
20977;DHT22;10647;51.016;3.720;2023-06-04T08:34:11;21.70;71.80
20977;DHT22;10647;51.016;3.720;2023-06-04T08:36:38;21.70;72.10
20977;DHT22;10647;51.016;3.720;2023-06-04T08:39:06;21.80;71.90
20977;DHT22;10647;51.016;3.720;2023-06-04T08:41:45;21.90;70.10
20977;DHT22;10647;51.016;3.720;2023-06-04T08:44:13;21.90;69.60
20977;DHT22;10647;51.016;3.720;2023-06-04T08:46:43;21.90;69.20
20977;DHT22;10647;51.016;3.720;2023-06-04T08:49:13;22.10;69.20
20977;DHT22;10647;51.016;3.720;2023-06-04T08:51:41;22.20;69.20
20977;DHT22;10647;51.016;3.720;2023-06-04T08:54:09;22.30;69.10
20977;DHT22;10647;51.016;3.720;2023-06-04T08:56:37;22.40;68.00
20977;DHT22;10647;51.016;3.720;2023-06-04T08:59:06;22.40;66.50
20977;DHT22;10647;51.016;3.720;2023-06-04T09:01:35;22.50;66.30
20977;DHT22;10647;51.016;3.720;2023-06-04T09:04:07;22.60;66.30
20977;DHT22;10647;51.016;3.720;2023-06-04T09:06:36;22.70;66.30
20977;DHT22;10647;51.016;3.720;2023-06-04T09:09:05;22.80;65.00
20977;DHT22;10647;51.016;3.720;2023-06-04T09:11:54;22.70;63.60
20977;DHT22;10647;51.016;3.720;2023-06-04T09:14:23;22.90;64.30
20977;DHT22;10647;51.016;3.720;2023-06-04T09:16:52;23.00;65.10
20977;DHT22;10647;51.016;3.720;2023-06-04T09:19:21;23.10;64.30
20977;DHT22;10647;51.016;3.720;2023-06-04T09:24:19;23.20;62.80
20977;DHT22;10647;51.016;3.720;2023-06-04T09:26:50;23.20;61.50
20977;DHT22;10647;51.016;3.720;2023-06-04T09:29:18;23.20;61.30
20977;DHT22;10647;51.016;3.720;2023-06-04T09:31:47;23.30;61.00
20977;DHT22;10647;51.016;3.720;2023-06-04T09:34:15;23.40;60.50
20977;DHT22;10647;51.016;3.720;2023-06-04T09:36:43;23.50;60.00
20977;DHT22;10647;51.016;3.720;2023-06-04T09:39:17;23.50;60.40
20977;DHT22;10647;51.016;3.720;2023-06-04T09:42:00;23.70;59.00
20977;DHT22;10647;51.016;3.720;2023-06-04T09:44:29;23.70;59.00
20977;DHT22;10647;51.016;3.720;2023-06-04T09:46:58;23.70;58.80
20977;DHT22;10647;51.016;3.720;2023-06-04T09:49:25;23.80;59.30
20977;DHT22;10647;51.016;3.720;2023-06-04T09:51:53;23.90;58.70
20977;DHT22;10647;51.016;3.720;2023-06-04T09:54:21;23.90;57.90
20977;DHT22;10647;51.016;3.720;2023-06-04T09:56:49;24.00;57.50
20977;DHT22;10647;51.016;3.720;2023-06-04T09:59:19;24.20;57.20
20977;DHT22;10647;51.016;3.720;2023-06-04T10:01:47;24.20;57.20
20977;DHT22;10647;51.016;3.720;2023-06-04T10:04:15;24.20;57.10
20977;DHT22;10647;51.016;3.720;2023-06-04T10:06:43;24.40;57.10
20977;DHT22;10647;51.016;3.720;2023-06-04T10:09:12;24.50;57.30
20977;DHT22;10647;51.016;3.720;2023-06-04T10:11:48;24.60;56.70
20977;DHT22;10647;51.016;3.720;2023-06-04T10:14:19;24.60;57.10
20977;DHT22;10647;51.016;3.720;2023-06-04T10:16:48;24.70;56.40
20977;DHT22;10647;51.016;3.720;2023-06-04T10:19:18;24.70;56.00
20977;DHT22;10647;51.016;3.720;2023-06-04T10:21:46;24.80;55.90
20977;DHT22;10647;51.016;3.720;2023-06-04T10:24:14;24.70;55.40
20977;DHT22;10647;51.016;3.720;2023-06-04T10:26:43;24.70;55.70
20977;DHT22;10647;51.016;3.720;2023-06-04T10:29:13;24.90;55.30
20977;DHT22;10647;51.016;3.720;2023-06-04T10:31:43;24.80;54.70
20977;DHT22;10647;51.016;3.720;2023-06-04T10:34:11;24.80;54.50
20977;DHT22;10647;51.016;3.720;2023-06-04T10:36:44;25.00;54.70
20977;DHT22;10647;51.016;3.720;2023-06-04T10:39:13;25.00;54.50
20977;DHT22;10647;51.016;3.720;2023-06-04T10:41:41;25.20;54.20
20977;DHT22;10647;51.016;3.720;2023-06-04T10:44:09;25.10;53.90
20977;DHT22;10647;51.016;3.720;2023-06-04T10:46:41;25.10;53.80
20977;DHT22;10647;51.016;3.720;2023-06-04T10:49:12;25.20;53.60
20977;DHT22;10647;51.016;3.720;2023-06-04T10:51:41;25.30;53.40
20977;DHT22;10647;51.016;3.720;2023-06-04T10:54:10;25.30;53.50
20977;DHT22;10647;51.016;3.720;2023-06-04T10:56:37;25.20;52.70
20977;DHT22;10647;51.016;3.720;2023-06-04T10:59:16;25.30;52.80
20977;DHT22;10647;51.016;3.720;2023-06-04T11:01:44;25.30;52.20
20977;DHT22;10647;51.016;3.720;2023-06-04T11:04:19;25.40;52.60
20977;DHT22;10647;51.016;3.720;2023-06-04T11:06:48;25.60;52.30
20977;DHT22;10647;51.016;3.720;2023-06-04T11:09:16;25.80;52.30
20977;DHT22;10647;51.016;3.720;2023-06-04T11:11:56;25.90;52.20
20977;DHT22;10647;51.016;3.720;2023-06-04T11:14:17;26.10;52.30
20977;DHT22;10647;51.016;3.720;2023-06-04T11:16:45;26.10;51.30
20977;DHT22;10647;51.016;3.720;2023-06-04T11:19:13;26.10;51.10
20977;DHT22;10647;51.016;3.720;2023-06-04T11:21:41;26.20;50.50
20977;DHT22;10647;51.016;3.720;2023-06-04T11:24:08;26.10;50.70
20977;DHT22;10647;51.016;3.720;2023-06-04T11:26:36;26.10;50.10
20977;DHT22;10647;51.016;3.720;2023-06-04T11:29:10;26.20;49.70
20977;DHT22;10647;51.016;3.720;2023-06-04T11:31:43;26.30;49.90
20977;DHT22;10647;51.016;3.720;2023-06-04T11:34:25;26.40;49.50
20977;DHT22;10647;51.016;3.720;2023-06-04T11:36:53;26.20;49.70
20977;DHT22;10647;51.016;3.720;2023-06-04T11:39:22;26.40;50.00
20977;DHT22;10647;51.016;3.720;2023-06-04T11:41:51;26.50;49.80
20977;DHT22;10647;51.016;3.720;2023-06-04T11:44:20;26.60;48.80
20977;DHT22;10647;51.016;3.720;2023-06-04T11:46:48;26.70;49.50
20977;DHT22;10647;51.016;3.720;2023-06-04T11:49:18;26.80;48.00
20977;DHT22;10647;51.016;3.720;2023-06-04T11:51:51;26.70;46.70
20977;DHT22;10647;51.016;3.720;2023-06-04T11:54:20;26.70;47.00
20977;DHT22;10647;51.016;3.720;2023-06-04T11:56:51;26.90;47.50
20977;DHT22;10647;51.016;3.720;2023-06-04T11:59:20;27.00;47.20
20977;DHT22;10647;51.016;3.720;2023-06-04T12:01:48;27.10;47.30
20977;DHT22;10647;51.016;3.720;2023-06-04T12:04:17;27.30;47.30
20977;DHT22;10647;51.016;3.720;2023-06-04T12:06:55;27.50;47.60
20977;DHT22;10647;51.016;3.720;2023-06-04T12:09:30;27.50;47.90
20977;DHT22;10647;51.016;3.720;2023-06-04T12:12:05;27.60;48.10
20977;DHT22;10647;51.016;3.720;2023-06-04T12:14:30;27.50;48.20
20977;DHT22;10647;51.016;3.720;2023-06-04T12:19:28;27.80;48.00
20977;DHT22;10647;51.016;3.720;2023-06-04T12:22:03;27.80;47.70
20977;DHT22;10647;51.016;3.720;2023-06-04T12:24:35;27.80;46.90
20977;DHT22;10647;51.016;3.720;2023-06-04T12:27:09;27.90;46.60
20977;DHT22;10647;51.016;3.720;2023-06-04T12:29:36;28.00;46.10
20977;DHT22;10647;51.016;3.720;2023-06-04T12:32:05;28.10;46.30
20977;DHT22;10647;51.016;3.720;2023-06-04T12:34:36;28.20;46.40
20977;DHT22;10647;51.016;3.720;2023-06-04T12:37:03;28.20;46.70
20977;DHT22;10647;51.016;3.720;2023-06-04T12:39:33;28.10;46.00
20977;DHT22;10647;51.016;3.720;2023-06-04T12:42:03;28.00;47.30
20977;DHT22;10647;51.016;3.720;2023-06-04T12:44:31;28.00;45.80
20977;DHT22;10647;51.016;3.720;2023-06-04T12:46:59;28.10;45.80
20977;DHT22;10647;51.016;3.720;2023-06-04T12:49:26;28.30;45.30
20977;DHT22;10647;51.016;3.720;2023-06-04T12:51:54;28.30;45.60
20977;DHT22;10647;51.016;3.720;2023-06-04T12:54:21;28.30;46.00
20977;DHT22;10647;51.016;3.720;2023-06-04T12:56:49;28.30;46.00
20977;DHT22;10647;51.016;3.720;2023-06-04T12:59:17;28.50;46.10
20977;DHT22;10647;51.016;3.720;2023-06-04T13:01:44;29.90;45.30
20977;DHT22;10647;51.016;3.720;2023-06-04T13:04:12;34.00;42.40
20977;DHT22;10647;51.016;3.720;2023-06-04T13:06:39;37.50;39.50
20977;DHT22;10647;51.016;3.720;2023-06-04T13:09:07;39.60;36.70
20977;DHT22;10647;51.016;3.720;2023-06-04T13:11:40;41.90;34.40
20977;DHT22;10647;51.016;3.720;2023-06-04T13:14:08;43.30;32.60
20977;DHT22;10647;51.016;3.720;2023-06-04T13:16:38;43.80;31.20
20977;DHT22;10647;51.016;3.720;2023-06-04T13:19:06;45.00;30.10
20977;DHT22;10647;51.016;3.720;2023-06-04T13:21:34;45.50;29.00
20977;DHT22;10647;51.016;3.720;2023-06-04T13:24:02;45.70;28.70
20977;DHT22;10647;51.016;3.720;2023-06-04T13:26:30;45.90;28.40
20977;DHT22;10647;51.016;3.720;2023-06-04T13:28:57;46.20;28.10
20977;DHT22;10647;51.016;3.720;2023-06-04T13:31:25;46.50;27.60
20977;DHT22;10647;51.016;3.720;2023-06-04T13:33:53;47.20;27.20
20977;DHT22;10647;51.016;3.720;2023-06-04T13:36:20;47.70;26.90
20977;DHT22;10647;51.016;3.720;2023-06-04T13:38:48;47.40;27.00
20977;DHT22;10647;51.016;3.720;2023-06-04T13:41:15;48.00;26.50
20977;DHT22;10647;51.016;3.720;2023-06-04T13:43:42;48.20;26.50
20977;DHT22;10647;51.016;3.720;2023-06-04T13:46:10;48.20;26.10
20977;DHT22;10647;51.016;3.720;2023-06-04T13:48:37;48.40;25.80
20977;DHT22;10647;51.016;3.720;2023-06-04T13:51:05;48.70;25.70
20977;DHT22;10647;51.016;3.720;2023-06-04T13:53:33;48.90;25.50
20977;DHT22;10647;51.016;3.720;2023-06-04T13:56:00;49.10;25.10
20977;DHT22;10647;51.016;3.720;2023-06-04T13:58:27;49.00;25.00
20977;DHT22;10647;51.016;3.720;2023-06-04T14:00:55;48.40;25.30
20977;DHT22;10647;51.016;3.720;2023-06-04T14:03:22;48.50;25.40
20977;DHT22;10647;51.016;3.720;2023-06-04T14:05:50;47.80;25.30
20977;DHT22;10647;51.016;3.720;2023-06-04T14:08:17;47.60;25.80
20977;DHT22;10647;51.016;3.720;2023-06-04T14:10:45;47.40;25.70
20977;DHT22;10647;51.016;3.720;2023-06-04T14:13:13;47.80;25.80
20977;DHT22;10647;51.016;3.720;2023-06-04T14:15:40;48.30;25.50
20977;DHT22;10647;51.016;3.720;2023-06-04T14:18:08;48.60;25.20
20977;DHT22;10647;51.016;3.720;2023-06-04T14:20:35;49.00;24.60
20977;DHT22;10647;51.016;3.720;2023-06-04T14:23:04;49.20;24.40
20977;DHT22;10647;51.016;3.720;2023-06-04T14:25:31;48.70;24.90
20977;DHT22;10647;51.016;3.720;2023-06-04T14:28:00;49.40;25.00
20977;DHT22;10647;51.016;3.720;2023-06-04T14:30:28;49.00;25.30
20977;DHT22;10647;51.016;3.720;2023-06-04T14:32:56;48.90;25.20
20977;DHT22;10647;51.016;3.720;2023-06-04T14:35:23;48.10;25.30
20977;DHT22;10647;51.016;3.720;2023-06-04T14:37:51;47.80;25.70
20977;DHT22;10647;51.016;3.720;2023-06-04T14:40:18;47.30;25.70
20977;DHT22;10647;51.016;3.720;2023-06-04T14:42:47;47.50;25.90
20977;DHT22;10647;51.016;3.720;2023-06-04T14:45:14;47.70;25.60
20977;DHT22;10647;51.016;3.720;2023-06-04T14:47:42;47.50;25.40
20977;DHT22;10647;51.016;3.720;2023-06-04T14:50:10;47.10;25.70
20977;DHT22;10647;51.016;3.720;2023-06-04T14:52:37;46.90;25.70
20977;DHT22;10647;51.016;3.720;2023-06-04T14:55:05;47.30;25.60
20977;DHT22;10647;51.016;3.720;2023-06-04T14:57:33;47.40;25.60
20977;DHT22;10647;51.016;3.720;2023-06-04T15:00:00;47.30;25.60
20977;DHT22;10647;51.016;3.720;2023-06-04T15:02:29;47.40;25.90
20977;DHT22;10647;51.016;3.720;2023-06-04T15:04:56;48.00;25.50
20977;DHT22;10647;51.016;3.720;2023-06-04T15:07:23;48.10;25.30
20977;DHT22;10647;51.016;3.720;2023-06-04T15:09:51;48.60;25.10
20977;DHT22;10647;51.016;3.720;2023-06-04T15:12:19;48.10;25.00
20977;DHT22;10647;51.016;3.720;2023-06-04T15:14:46;48.30;25.30
20977;DHT22;10647;51.016;3.720;2023-06-04T15:17:14;47.10;25.50
20977;DHT22;10647;51.016;3.720;2023-06-04T15:19:41;46.60;25.70
20977;DHT22;10647;51.016;3.720;2023-06-04T15:22:09;46.50;26.10
20977;DHT22;10647;51.016;3.720;2023-06-04T15:24:37;47.00;25.90
20977;DHT22;10647;51.016;3.720;2023-06-04T15:27:06;47.30;25.60
20977;DHT22;10647;51.016;3.720;2023-06-04T15:29:33;46.80;25.40
20977;DHT22;10647;51.016;3.720;2023-06-04T15:32:01;47.40;25.50
20977;DHT22;10647;51.016;3.720;2023-06-04T15:34:31;47.50;26.20
20977;DHT22;10647;51.016;3.720;2023-06-04T15:36:58;47.10;27.50
20977;DHT22;10647;51.016;3.720;2023-06-04T15:39:26;45.80;28.60
20977;DHT22;10647;51.016;3.720;2023-06-04T15:41:54;44.90;29.90
20977;DHT22;10647;51.016;3.720;2023-06-04T15:44:21;43.60;31.10